createdAt,value
2023-11-17T00:00:24.634Z,0.50
2023-11-17T00:01:27.996Z,0.50
2023-11-17T00:02:30.206Z,0.80
2023-11-17T00:03:32.195Z,2.00
2023-11-17T00:04:34.848Z,0.80
2023-11-17T00:05:36.982Z,1.20
2023-11-17T00:06:39.152Z,2.11
2023-11-17T00:07:41.461Z,2.30
2023-11-17T00:08:43.654Z,1.50
2023-11-17T00:09:45.902Z,1.20
2023-11-17T00:10:48.206Z,0.10
2023-11-17T00:11:50.484Z,2.00
2023-11-17T00:12:52.639Z,2.80
2023-11-17T00:13:54.804Z,3.00
2023-11-17T00:14:57.207Z,1.60
2023-11-17T00:15:59.486Z,1.30
2023-11-17T00:17:02.896Z,1.80
2023-11-17T00:18:05.341Z,1.00
2023-11-17T00:19:07.525Z,5.20
2023-11-17T00:20:10.934Z,1.90
2023-11-17T00:21:13.142Z,1.80
2023-11-17T00:22:15.394Z,2.20
2023-11-17T00:23:17.450Z,2.70
2023-11-17T00:24:20.288Z,1.50
2023-11-17T00:25:22.584Z,1.91
2023-11-17T00:26:25.099Z,2.50
2023-11-17T00:27:29.145Z,1.50
2023-11-17T00:28:31.622Z,1.73
2023-11-17T00:29:34.093Z,3.00
2023-11-17T00:30:36.537Z,1.50
2023-11-17T00:31:39.049Z,2.20
2023-11-17T00:32:41.495Z,2.80
2023-11-17T00:33:43.742Z,1.50
2023-11-17T00:34:46.371Z,1.70
2023-11-17T00:35:48.539Z,1.00
2023-11-17T00:36:52.035Z,1.70
2023-11-17T00:37:55.268Z,2.00
2023-11-17T00:38:57.822Z,1.70
2023-11-17T00:40:01.927Z,1.50
2023-11-17T00:41:11.499Z,1.70
2023-11-17T00:42:09.487Z,3.00
2023-11-17T00:43:11.925Z,2.00
2023-11-17T00:44:14.221Z,1.50
2023-11-17T00:45:16.235Z,1.50
2023-11-17T00:46:19.236Z,1.00
2023-11-17T00:47:22.034Z,1.80
2023-11-17T00:48:26.185Z,2.20
2023-11-17T00:49:28.886Z,1.45
2023-11-17T00:50:31.111Z,1.00
2023-11-17T00:51:33.328Z,2.50
2023-11-17T00:52:35.417Z,1.10
2023-11-17T00:53:37.466Z,1.56
2023-11-17T00:54:40.124Z,0.50
2023-11-17T00:55:42.272Z,1.60
2023-11-17T00:56:44.283Z,0.70
2023-11-17T00:57:46.806Z,3.20
2023-11-17T00:58:49.149Z,1.70
2023-11-17T00:59:51.667Z,1.00
2023-11-17T01:00:54.830Z,1.50
2023-11-17T01:01:57.365Z,0.90
2023-11-17T01:03:01.024Z,1.70
2023-11-17T01:04:06.771Z,2.00
2023-11-17T01:05:13.636Z,1.50
2023-11-17T01:06:19.948Z,1.20
2023-11-17T01:07:25.186Z,1.70
2023-11-17T01:08:30.247Z,2.60
2023-11-17T01:09:37.549Z,1.20
2023-11-17T01:10:42.056Z,1.50
2023-11-17T01:11:45.849Z,1.70
2023-11-17T01:12:50.953Z,1.60
2023-11-17T01:13:58.147Z,2.50
2023-11-17T01:15:05.456Z,1.60
2023-11-17T01:16:13.894Z,1.40
2023-11-17T01:17:20.489Z,1.70
2023-11-17T01:18:26.266Z,4.80
2023-11-17T01:19:29.689Z,2.50
2023-11-17T01:20:34.185Z,2.20
2023-11-17T01:21:39.494Z,5.90
2023-11-17T01:22:44.456Z,3.20
2023-11-17T01:23:52.561Z,4.30
2023-11-17T01:24:55.910Z,3.80
2023-11-17T01:26:00.088Z,2.60
2023-11-17T01:27:06.972Z,4.00
2023-11-17T01:28:15.508Z,3.30
2023-11-17T01:29:22.560Z,3.00
2023-11-17T01:30:30.143Z,3.00
2023-11-17T01:31:38.000Z,1.40
2023-11-17T01:32:47.729Z,3.10
2023-11-17T01:33:55.175Z,2.60
2023-11-17T01:35:01.504Z,2.80
2023-11-17T01:36:07.620Z,2.40
2023-11-17T01:37:14.087Z,2.50
2023-11-17T01:38:26.448Z,2.90
2023-11-17T01:39:33.407Z,2.80
2023-11-17T01:40:37.771Z,2.40
2023-11-17T01:41:49.185Z,2.00
2023-11-17T01:42:57.206Z,2.50
2023-11-17T01:44:04.086Z,2.30
2023-11-17T01:45:10.485Z,1.90
2023-11-17T01:46:22.374Z,2.60
2023-11-17T01:47:29.945Z,3.40
2023-11-17T01:48:35.665Z,2.90
2023-11-17T01:49:38.819Z,3.40
2023-11-17T01:50:44.029Z,3.80
2023-11-17T01:51:49.806Z,2.80
2023-11-17T01:52:54.264Z,2.80
2023-11-17T01:54:02.453Z,4.50
2023-11-17T01:55:19.213Z,3.00
2023-11-17T01:56:26.440Z,4.80
2023-11-17T01:59:07.638Z,7.40
2023-11-17T02:00:14.267Z,6.10
2023-11-17T02:01:20.100Z,6.80
2023-11-17T02:02:24.247Z,4.70
2023-11-17T02:03:29.475Z,8.80
2023-11-17T02:04:38.119Z,4.40
2023-11-17T02:05:45.099Z,3.40
2023-11-17T02:07:08.271Z,2.20
2023-11-17T02:09:37.862Z,5.10
2023-11-17T02:11:02.158Z,4.50
2023-11-17T02:12:26.302Z,4.00
2023-11-17T02:13:45.128Z,3.00
2023-11-17T02:14:49.817Z,0.00
2023-11-17T02:17:15.241Z,4.20
2023-11-17T02:18:20.200Z,2.10
2023-11-17T02:19:38.225Z,2.80
2023-11-17T02:20:43.118Z,2.50
2023-11-17T02:21:46.951Z,2.60
2023-11-17T02:22:51.732Z,1.40
2023-11-17T02:23:54.165Z,2.20
2023-11-17T02:25:12.515Z,2.70
2023-11-17T02:26:31.128Z,1.30
2023-11-17T02:27:37.545Z,3.20
2023-11-17T02:28:46.428Z,2.90
2023-11-17T02:29:49.587Z,1.00
2023-11-17T02:30:52.967Z,5.00
2023-11-17T02:31:56.243Z,1.73
2023-11-17T02:32:59.258Z,2.00
2023-11-17T02:35:21.887Z,2.10
2023-11-17T02:36:25.313Z,3.80
2023-11-17T02:37:27.688Z,2.60
2023-11-17T02:38:30.243Z,2.20
2023-11-17T02:39:32.730Z,2.10
2023-11-17T02:40:35.046Z,1.70
2023-11-17T02:41:37.707Z,2.73
2023-11-17T02:42:40.005Z,2.40
2023-11-17T02:43:42.151Z,2.90
2023-11-17T02:44:44.210Z,1.80
2023-11-17T02:45:47.211Z,3.00
2023-11-17T02:46:50.218Z,3.60
2023-11-17T02:47:56.392Z,4.80
2023-11-17T02:48:58.023Z,2.20
2023-11-17T02:50:00.387Z,2.20
2023-11-17T02:51:03.344Z,3.00
2023-11-17T02:52:08.690Z,2.30
2023-11-17T02:53:11.138Z,2.40
2023-11-17T02:54:14.555Z,1.50
2023-11-17T02:55:18.570Z,2.40
2023-11-17T02:56:21.815Z,4.10
2023-11-17T02:57:26.327Z,2.00
2023-11-17T02:58:30.328Z,3.50
2023-11-17T02:59:33.373Z,2.70
2023-11-17T03:00:38.141Z,2.70
2023-11-17T03:01:41.520Z,2.40
2023-11-17T03:02:43.779Z,3.60
2023-11-17T03:03:50.386Z,2.20
2023-11-17T03:04:52.980Z,1.20
2023-11-17T03:05:55.253Z,1.20
2023-11-17T03:06:58.399Z,2.80
2023-11-17T03:08:01.179Z,1.82
2023-11-17T03:09:03.710Z,2.00
2023-11-17T03:10:07.024Z,1.40
2023-11-17T03:11:10.453Z,2.10
2023-11-17T03:12:14.038Z,2.20
2023-11-17T03:13:16.164Z,1.90
2023-11-17T03:14:19.155Z,3.30
2023-11-17T03:15:24.487Z,2.60
2023-11-17T03:16:27.268Z,3.10
2023-11-17T03:17:29.861Z,2.30
2023-11-17T03:18:33.170Z,1.50
2023-11-17T03:19:36.752Z,2.90
2023-11-17T03:20:39.727Z,3.00
2023-11-17T03:21:42.546Z,4.60
2023-11-17T03:22:45.380Z,4.09
2023-11-17T03:23:47.940Z,5.00
2023-11-17T03:24:50.091Z,4.50
2023-11-17T03:25:53.326Z,3.10
2023-11-17T03:26:58.086Z,5.00
2023-11-17T03:28:00.947Z,3.80
2023-11-17T03:29:04.632Z,3.00
2023-11-17T03:30:08.359Z,3.73
2023-11-17T03:31:10.695Z,2.60
2023-11-17T03:32:13.627Z,2.20
2023-11-17T03:33:16.287Z,2.64
2023-11-17T03:34:22.702Z,1.82
2023-11-17T03:35:24.939Z,4.10
2023-11-17T03:36:27.841Z,2.90
2023-11-17T03:37:31.016Z,2.20
2023-11-17T03:38:33.388Z,1.70
2023-11-17T03:39:37.334Z,2.00
2023-11-17T03:40:46.192Z,2.90
2023-11-17T03:41:48.338Z,2.60
2023-11-17T03:42:51.206Z,3.60
2023-11-17T03:43:53.332Z,2.00
2023-11-17T03:44:55.208Z,2.22
2023-11-17T03:45:57.768Z,2.30
2023-11-17T03:47:00.441Z,1.80
2023-11-17T03:48:02.598Z,1.60
2023-11-17T03:49:05.103Z,2.70
2023-11-17T03:50:08.731Z,2.10
2023-11-17T03:51:11.073Z,2.00
2023-11-17T03:52:13.425Z,2.30
2023-11-17T03:53:15.750Z,3.00
2023-11-17T03:54:18.687Z,1.30
2023-11-17T03:55:21.591Z,2.10
2023-11-17T03:56:24.079Z,2.40
2023-11-17T03:57:27.094Z,3.90
2023-11-17T03:58:29.665Z,4.00
2023-11-17T03:59:32.230Z,4.20
2023-11-17T04:00:34.520Z,2.90
2023-11-17T04:01:37.160Z,3.20
2023-11-17T04:02:39.650Z,3.00
2023-11-17T04:03:42.007Z,4.40
2023-11-17T04:04:53.737Z,6.10
2023-11-17T04:06:03.309Z,0.00
2023-11-17T04:07:10.156Z,2.50
2023-11-17T04:08:17.692Z,2.50
2023-11-17T04:09:22.368Z,2.20
2023-11-17T04:10:30.961Z,2.10
2023-11-17T04:11:39.068Z,2.70
2023-11-17T04:14:03.878Z,3.40
2023-11-17T04:15:09.272Z,2.70
2023-11-17T04:16:12.497Z,3.10
2023-11-17T04:17:15.536Z,2.40
2023-11-17T04:18:17.575Z,2.00
2023-11-17T04:19:20.053Z,2.70
2023-11-17T04:20:22.196Z,3.10
2023-11-17T04:21:24.655Z,3.20
2023-11-17T04:22:26.965Z,3.50
2023-11-17T04:23:28.925Z,2.90
2023-11-17T04:24:30.952Z,2.56
2023-11-17T04:25:33.109Z,3.67
2023-11-17T04:26:35.220Z,3.30
2023-11-17T04:27:37.613Z,1.44
2023-11-17T04:28:40.317Z,5.30
2023-11-17T04:29:42.896Z,3.70
2023-11-17T04:30:45.268Z,3.20
2023-11-17T04:31:48.367Z,3.10
2023-11-17T04:32:51.454Z,3.70
2023-11-17T04:33:53.832Z,5.60
2023-11-17T04:34:56.074Z,5.70
2023-11-17T04:35:58.722Z,2.50
2023-11-17T04:37:00.984Z,3.00
2023-11-17T04:38:03.305Z,3.40
2023-11-17T04:39:06.168Z,3.50
2023-11-17T04:40:09.653Z,2.70
2023-11-17T04:41:13.069Z,2.36
2023-11-17T04:42:15.713Z,3.00
2023-11-17T04:43:18.082Z,3.00
2023-11-17T04:44:20.264Z,3.00
2023-11-17T04:45:22.877Z,6.70
2023-11-17T04:46:25.296Z,3.60
2023-11-17T04:47:27.525Z,3.20
2023-11-17T04:48:30.100Z,2.30
2023-11-17T04:49:32.258Z,3.10
2023-11-17T04:50:35.086Z,2.80
2023-11-17T04:51:37.535Z,4.00
2023-11-17T04:52:39.762Z,6.60
2023-11-17T04:53:41.830Z,3.10
2023-11-17T04:54:46.678Z,4.70
2023-11-17T04:55:48.984Z,2.90
2023-11-17T04:56:51.578Z,4.10
2023-11-17T04:57:53.810Z,4.40
2023-11-17T04:58:55.871Z,3.10
2023-11-17T04:59:58.487Z,3.50
2023-11-17T05:01:01.411Z,3.00
2023-11-17T05:02:03.779Z,3.10
2023-11-17T05:03:06.622Z,3.50
2023-11-17T05:04:08.868Z,3.90
2023-11-17T05:05:11.453Z,4.50
2023-11-17T05:06:19.504Z,3.00
2023-11-17T05:07:21.914Z,3.40
2023-11-17T05:08:24.054Z,3.30
2023-11-17T05:09:26.183Z,3.70
2023-11-17T05:10:29.078Z,1.80
2023-11-17T05:11:32.185Z,3.20
2023-11-17T05:12:35.022Z,2.80
2023-11-17T05:13:37.240Z,3.90
2023-11-17T05:14:39.987Z,5.00
2023-11-17T05:16:52.781Z,4.80
2023-11-17T05:17:55.031Z,3.30
2023-11-17T05:18:57.693Z,3.30
2023-11-17T05:20:00.283Z,4.00
2023-11-17T05:21:02.634Z,3.00
2023-11-17T05:22:04.704Z,4.20
2023-11-17T05:23:06.973Z,5.80
2023-11-17T05:24:09.922Z,3.70
2023-11-17T05:25:14.459Z,4.00
2023-11-17T05:26:17.266Z,3.90
2023-11-17T05:27:19.394Z,2.20
2023-11-17T05:28:21.675Z,3.70
2023-11-17T05:29:24.494Z,3.70
2023-11-17T05:30:27.595Z,3.18
2023-11-17T05:31:30.164Z,4.00
2023-11-17T05:32:34.333Z,4.30
2023-11-17T05:33:36.905Z,5.30
2023-11-17T05:34:39.874Z,3.20
2023-11-17T05:36:52.232Z,5.30
2023-11-17T05:37:54.475Z,4.30
2023-11-17T05:38:56.753Z,3.70
2023-11-17T05:39:59.055Z,3.00
2023-11-17T05:41:01.333Z,4.00
2023-11-17T05:42:03.632Z,3.80
2023-11-17T05:43:05.705Z,4.10
2023-11-17T05:44:08.504Z,3.60
2023-11-17T05:45:10.785Z,3.90
2023-11-17T05:46:14.392Z,4.73
2023-11-17T05:47:16.791Z,3.18
2023-11-17T05:48:19.428Z,3.70
2023-11-17T05:49:22.152Z,5.00
2023-11-17T05:50:24.701Z,3.50
2023-11-17T05:51:27.122Z,4.30
2023-11-17T05:52:29.458Z,4.00
2023-11-17T05:53:31.767Z,5.70
2023-11-17T05:54:35.227Z,5.00
2023-11-17T05:55:37.665Z,4.50
2023-11-17T05:56:40.132Z,4.70
2023-11-17T05:57:42.694Z,3.70
2023-11-17T05:58:45.189Z,5.91
2023-11-17T05:59:48.293Z,4.20
2023-11-17T06:00:51.603Z,5.10
2023-11-17T06:01:54.469Z,8.00
2023-11-17T06:02:56.789Z,6.30
2023-11-17T06:03:58.981Z,6.30
2023-11-17T06:05:01.900Z,5.80
2023-11-17T06:06:04.548Z,9.70
2023-11-17T06:07:06.803Z,6.20
2023-11-17T06:08:09.480Z,5.20
2023-11-17T06:09:11.601Z,4.90
2023-11-17T06:10:15.120Z,7.82
2023-11-17T06:11:25.167Z,7.40
2023-11-17T06:12:27.847Z,8.10
2023-11-17T06:13:29.981Z,5.70
2023-11-17T06:14:32.255Z,5.80
2023-11-17T06:15:35.116Z,7.00
2023-11-17T06:16:37.436Z,5.82
2023-11-17T06:17:39.748Z,5.60
2023-11-17T06:18:42.421Z,7.90
2023-11-17T06:19:44.596Z,5.20
2023-11-17T06:20:47.109Z,4.20
2023-11-17T06:21:49.362Z,6.90
2023-11-17T06:22:51.498Z,6.10
2023-11-17T06:23:54.685Z,6.20
2023-11-17T06:24:56.964Z,5.90
2023-11-17T06:25:59.802Z,8.70
2023-11-17T06:27:02.144Z,7.36
2023-11-17T06:28:04.575Z,5.50
2023-11-17T06:29:07.267Z,7.60
2023-11-17T06:30:11.020Z,7.80
2023-11-17T06:31:13.492Z,9.45
2023-11-17T06:32:16.236Z,9.10
2023-11-17T06:33:18.564Z,6.10
2023-11-17T06:34:21.402Z,10.10
2023-11-17T06:35:23.593Z,7.90
2023-11-17T06:36:26.428Z,10.20
2023-11-17T06:37:28.662Z,11.80
2023-11-17T06:38:31.057Z,15.11
2023-11-17T06:39:33.836Z,10.70
2023-11-17T06:40:36.017Z,10.10
2023-11-17T06:41:38.915Z,13.30
2023-11-17T06:42:41.230Z,9.73
2023-11-17T06:43:43.349Z,12.70
2023-11-17T06:44:46.112Z,9.70
2023-11-17T06:45:50.321Z,7.70
2023-11-17T06:46:53.313Z,9.80
2023-11-17T06:47:55.850Z,8.70
2023-11-17T06:48:58.048Z,9.40
2023-11-17T06:50:00.715Z,6.60
2023-11-17T06:51:03.188Z,6.00
2023-11-17T06:52:06.596Z,7.80
2023-11-17T06:53:08.651Z,6.40
2023-11-17T06:54:11.647Z,6.60
2023-11-17T06:55:13.805Z,10.00
2023-11-17T06:56:16.645Z,6.90
2023-11-17T06:57:19.180Z,8.60
2023-11-17T06:58:21.713Z,8.90
2023-11-17T06:59:23.680Z,9.20
2023-11-17T07:00:27.050Z,8.40
2023-11-17T07:01:29.367Z,8.00
2023-11-17T07:02:31.831Z,6.60
2023-11-17T07:03:36.421Z,5.90
2023-11-17T07:04:39.100Z,7.40
2023-11-17T07:05:43.165Z,5.30
2023-11-17T07:06:48.415Z,3.90
2023-11-17T07:07:55.455Z,6.70
2023-11-17T07:09:00.621Z,4.30
2023-11-17T07:10:06.960Z,6.20
2023-11-17T07:11:12.698Z,5.60
2023-11-17T07:12:19.469Z,4.90
2023-11-17T07:13:27.171Z,6.80
2023-11-17T07:15:26.641Z,8.60
2023-11-17T07:16:40.983Z,2.00
2023-11-17T07:17:34.765Z,6.10
2023-11-17T07:18:37.519Z,4.50
2023-11-17T07:19:40.761Z,4.55
2023-11-17T07:20:43.005Z,5.00
2023-11-17T07:22:57.117Z,6.60
2023-11-17T07:23:59.054Z,5.50
2023-11-17T07:25:01.184Z,4.67
2023-11-17T07:26:03.517Z,5.70
2023-11-17T07:27:05.731Z,5.50
2023-11-17T07:28:07.797Z,4.70
2023-11-17T07:29:09.910Z,3.22
2023-11-17T07:30:13.168Z,5.10
2023-11-17T07:31:15.279Z,4.50
2023-11-17T07:32:17.557Z,4.50
2023-11-17T07:33:20.126Z,2.40
2023-11-17T07:34:23.412Z,2.80
2023-11-17T07:35:26.308Z,3.20
2023-11-17T07:36:29.911Z,4.60
2023-11-17T07:37:32.591Z,6.20
2023-11-17T07:38:36.789Z,5.00
2023-11-17T07:39:39.357Z,5.90
2023-11-17T07:40:42.079Z,5.10
2023-11-17T07:41:44.455Z,3.30
2023-11-17T07:42:49.642Z,4.70
2023-11-17T07:43:52.185Z,4.40
2023-11-17T07:44:54.191Z,3.80
2023-11-17T07:45:56.346Z,4.90
2023-11-17T07:46:59.006Z,5.10
2023-11-17T07:48:01.229Z,4.80
2023-11-17T07:49:04.036Z,5.00
2023-11-17T07:50:06.743Z,4.70
2023-11-17T07:51:09.116Z,5.30
2023-11-17T07:52:11.464Z,6.50
2023-11-17T07:53:14.187Z,8.70
2023-11-17T07:54:16.636Z,7.20
2023-11-17T07:55:19.033Z,8.60
2023-11-17T07:56:22.077Z,7.10
2023-11-17T07:57:24.481Z,6.00
2023-11-17T07:58:27.428Z,4.20
2023-11-17T07:59:29.537Z,4.20
2023-11-17T08:00:32.919Z,3.10
2023-11-17T08:01:35.238Z,3.70
2023-11-17T08:02:37.815Z,3.10
2023-11-17T08:03:40.003Z,4.00
2023-11-17T08:04:42.204Z,3.00
2023-11-17T08:05:44.725Z,4.40
2023-11-17T08:06:47.844Z,4.70
2023-11-17T08:07:50.985Z,2.90
2023-11-17T08:08:53.559Z,3.80
2023-11-17T08:09:56.508Z,4.80
2023-11-17T08:11:00.628Z,6.40
2023-11-17T08:12:03.499Z,3.90
2023-11-17T08:13:06.079Z,5.00
2023-11-17T08:14:08.402Z,7.00
2023-11-17T08:15:11.823Z,9.40
2023-11-17T08:16:15.419Z,8.91
2023-11-17T08:17:18.122Z,8.36
2023-11-17T08:18:20.594Z,9.70
2023-11-17T08:19:25.628Z,6.30
2023-11-17T08:20:27.875Z,8.40
2023-11-17T08:21:30.238Z,7.60
2023-11-17T08:22:32.357Z,7.10
2023-11-17T08:23:34.564Z,4.60
2023-11-17T08:24:37.223Z,5.80
2023-11-17T08:25:39.626Z,5.10
2023-11-17T08:26:42.252Z,6.30
2023-11-17T08:27:44.311Z,7.10
2023-11-17T08:28:46.723Z,8.00
2023-11-17T08:29:49.495Z,7.80
2023-11-17T08:30:53.387Z,5.55
2023-11-17T08:31:56.322Z,4.80
2023-11-17T08:32:58.667Z,8.20
2023-11-17T08:34:01.436Z,6.00
2023-11-17T08:35:05.283Z,8.20
2023-11-17T08:36:09.243Z,6.90
2023-11-17T08:37:12.130Z,10.80
2023-11-17T08:38:15.604Z,22.10
2023-11-17T08:39:17.935Z,21.00
2023-11-17T08:40:20.893Z,24.60
2023-11-17T08:41:23.440Z,25.27
2023-11-17T08:42:26.292Z,21.80
2023-11-17T08:43:28.286Z,22.50
2023-11-17T08:44:30.962Z,21.30
2023-11-17T08:45:33.783Z,21.60
2023-11-17T08:46:36.593Z,14.80
2023-11-17T08:47:41.589Z,11.90
2023-11-17T08:48:44.399Z,7.10
2023-11-17T08:49:46.605Z,7.30
2023-11-17T08:50:49.145Z,5.60
2023-11-17T08:51:51.895Z,6.60
2023-11-17T08:52:54.122Z,7.40
2023-11-17T08:53:56.248Z,7.70
2023-11-17T08:54:58.742Z,7.90
2023-11-17T08:56:01.407Z,10.10
2023-11-17T08:57:05.090Z,9.90
2023-11-17T08:58:07.443Z,13.70
2023-11-17T08:59:10.215Z,10.00
2023-11-17T09:00:13.501Z,12.30
2023-11-17T09:01:16.488Z,15.00
2023-11-17T09:02:18.732Z,16.90
2023-11-17T09:03:21.100Z,13.10
2023-11-17T09:04:23.356Z,13.20
2023-11-17T09:05:26.327Z,15.70
2023-11-17T09:06:29.029Z,14.27
2023-11-17T09:07:31.842Z,18.60
2023-11-17T09:08:34.263Z,13.60
2023-11-17T09:09:36.897Z,10.60
2023-11-17T09:10:39.315Z,8.20
2023-11-17T09:11:44.134Z,6.90
2023-11-17T09:12:48.979Z,5.30
2023-11-17T09:13:52.051Z,6.70
2023-11-17T09:14:54.846Z,5.36
2023-11-17T09:15:57.834Z,5.00
2023-11-17T09:17:01.089Z,9.50
2023-11-17T09:19:13.836Z,12.10
2023-11-17T09:20:17.321Z,13.20
2023-11-17T09:21:20.123Z,11.40
2023-11-17T09:22:23.534Z,9.00
2023-11-17T09:23:26.027Z,9.20
2023-11-17T09:24:28.699Z,9.80
2023-11-17T09:25:33.681Z,5.20
2023-11-17T09:26:34.976Z,6.10
2023-11-17T09:27:37.349Z,5.20
2023-11-17T09:28:39.517Z,4.60
2023-11-17T09:29:41.612Z,4.60
2023-11-17T09:30:48.586Z,4.20
2023-11-17T09:31:50.692Z,5.10
2023-11-17T09:32:54.603Z,5.30
2023-11-17T09:33:58.008Z,5.80
2023-11-17T09:35:00.326Z,4.90
2023-11-17T09:36:04.040Z,1.30
2023-11-17T09:37:06.682Z,4.50
2023-11-17T09:38:09.270Z,5.10
2023-11-17T09:39:12.058Z,5.90
2023-11-17T09:40:15.108Z,7.80
2023-11-17T09:41:17.388Z,8.50
2023-11-17T09:42:20.643Z,4.80
2023-11-17T09:43:24.054Z,5.64
2023-11-17T09:44:27.849Z,8.50
2023-11-17T09:45:30.276Z,8.20
2023-11-17T09:46:35.527Z,9.64
2023-11-17T09:47:38.286Z,10.00
2023-11-17T09:48:43.465Z,7.36
2023-11-17T09:49:47.829Z,8.40
2023-11-17T09:50:51.304Z,5.90
2023-11-17T09:51:54.128Z,8.70
2023-11-17T09:52:58.519Z,6.90
2023-11-17T09:54:02.054Z,9.09
2023-11-17T09:55:07.317Z,9.60
2023-11-17T09:56:11.005Z,9.70
2023-11-17T09:57:14.796Z,5.91
2023-11-17T09:58:17.914Z,6.70
2023-11-17T09:59:20.674Z,6.70
2023-11-17T10:00:25.088Z,10.30
2023-11-17T10:01:29.104Z,9.60
2023-11-17T10:02:34.068Z,8.70
2023-11-17T10:03:39.516Z,9.60
2023-11-17T10:04:43.448Z,7.90
2023-11-17T10:05:48.521Z,6.00
2023-11-17T10:06:52.411Z,6.60
2023-11-17T10:07:58.195Z,9.90
2023-11-17T10:09:01.655Z,6.40
2023-11-17T10:10:06.893Z,5.50
2023-11-17T10:11:12.600Z,5.10
2023-11-17T10:12:15.158Z,6.30
2023-11-17T10:13:18.845Z,7.00
2023-11-17T10:14:23.818Z,5.70
2023-11-17T10:15:28.187Z,5.30
2023-11-17T10:16:33.225Z,3.70
2023-11-17T10:17:37.718Z,5.10
2023-11-17T10:18:41.916Z,5.10
2023-11-17T10:19:46.977Z,4.40
2023-11-17T10:20:50.097Z,6.70
2023-11-17T10:21:54.913Z,4.36
2023-11-17T10:22:59.367Z,7.50
2023-11-17T10:24:01.958Z,9.90
2023-11-17T10:25:05.350Z,6.70
2023-11-17T10:26:08.112Z,6.40
2023-11-17T10:27:10.759Z,3.70
2023-11-17T10:28:14.034Z,5.90
2023-11-17T10:29:16.305Z,7.90
2023-11-17T10:30:19.533Z,6.80
2023-11-17T10:31:23.199Z,6.20
2023-11-17T10:32:42.119Z,5.20
2023-11-17T10:33:40.228Z,6.80
2023-11-17T10:34:42.580Z,5.50
2023-11-17T10:36:05.528Z,7.50
2023-11-17T10:37:07.633Z,6.10
2023-11-17T10:38:17.256Z,4.10
2023-11-17T10:39:20.091Z,4.60
2023-11-17T10:40:23.978Z,7.45
2023-11-17T10:41:26.262Z,6.10
2023-11-17T10:42:28.595Z,4.90
2023-11-17T10:43:34.949Z,4.70
2023-11-17T10:44:37.291Z,2.60
2023-11-17T10:45:41.290Z,6.60
2023-11-17T10:46:44.743Z,4.30
2023-11-17T10:47:48.149Z,5.10
2023-11-17T10:48:50.853Z,4.90
2023-11-17T10:50:09.039Z,5.00
2023-11-17T10:51:11.344Z,7.40
2023-11-17T10:52:17.237Z,5.20
2023-11-17T10:53:21.425Z,5.30
2023-11-17T10:54:24.111Z,6.30
2023-11-17T10:55:33.786Z,5.50
2023-11-17T10:56:37.858Z,7.30
2023-11-17T10:57:40.573Z,5.50
2023-11-17T10:58:51.087Z,5.90
2023-11-17T10:59:58.454Z,6.80
2023-11-17T11:00:58.201Z,5.70
2023-11-17T11:02:01.487Z,6.70
2023-11-17T11:03:04.641Z,4.10
2023-11-17T11:04:07.919Z,4.60
2023-11-17T11:05:11.228Z,6.70
2023-11-17T11:06:14.229Z,4.50
2023-11-17T11:07:16.704Z,6.10
2023-11-17T11:08:19.280Z,5.50
2023-11-17T11:10:41.977Z,8.50
2023-11-17T11:11:48.593Z,8.30
2023-11-17T11:12:52.070Z,8.60
2023-11-17T11:13:55.104Z,9.40
2023-11-17T11:14:57.379Z,5.60
2023-11-17T11:16:02.446Z,6.00
2023-11-17T11:17:05.196Z,7.20
2023-11-17T11:18:07.630Z,9.64
2023-11-17T11:19:11.218Z,10.30
2023-11-17T11:20:22.790Z,10.00
2023-11-17T11:21:19.645Z,9.70
2023-11-17T11:22:23.296Z,10.90
2023-11-17T11:23:25.840Z,9.00
2023-11-17T11:24:36.506Z,11.40
2023-11-17T11:25:36.607Z,6.90
2023-11-17T11:26:39.199Z,9.70
2023-11-17T11:27:42.892Z,6.70
2023-11-17T11:28:46.906Z,7.40
2023-11-17T11:29:49.634Z,6.90
2023-11-17T11:30:54.026Z,7.09
2023-11-17T11:31:57.114Z,8.10
2023-11-17T11:33:00.051Z,6.80
2023-11-17T11:34:04.731Z,10.18
2023-11-17T11:35:07.994Z,9.30
2023-11-17T11:36:12.598Z,9.40
2023-11-17T11:37:14.871Z,9.00
2023-11-17T11:38:17.280Z,9.50
2023-11-17T11:39:20.775Z,8.70
2023-11-17T11:40:23.146Z,9.40
2023-11-17T11:41:25.606Z,8.30
2023-11-17T11:42:27.997Z,7.80
2023-11-17T11:43:30.227Z,9.40
2023-11-17T11:44:32.443Z,6.30
2023-11-17T11:45:34.862Z,7.10
2023-11-17T11:46:38.133Z,7.80
2023-11-17T11:47:40.949Z,9.40
2023-11-17T11:48:55.809Z,6.91
2023-11-17T11:49:58.760Z,7.00
2023-11-17T11:51:01.631Z,8.64
2023-11-17T11:52:07.886Z,6.80
2023-11-17T11:53:37.463Z,7.10
2023-11-17T11:54:40.365Z,8.30
2023-11-17T11:55:43.414Z,9.80
2023-11-17T11:56:46.352Z,10.50
2023-11-17T11:57:55.311Z,9.45
2023-11-17T11:58:58.882Z,10.30
2023-11-17T12:00:07.995Z,8.90
2023-11-17T12:01:17.745Z,7.70
2023-11-17T12:02:20.854Z,8.80
2023-11-17T12:04:34.302Z,17.40
2023-11-17T12:05:45.372Z,16.80
2023-11-17T12:06:51.241Z,17.00
2023-11-17T12:07:52.338Z,17.50
2023-11-17T12:09:06.042Z,21.80
2023-11-17T12:10:10.913Z,21.20
2023-11-17T12:11:14.433Z,15.20
2023-11-17T12:12:19.137Z,13.30
2023-11-17T12:13:44.221Z,10.40
2023-11-17T12:14:46.495Z,9.90
2023-11-17T12:15:49.295Z,11.80
2023-11-17T12:16:53.394Z,10.91
2023-11-17T12:18:00.878Z,11.10
2023-11-17T12:20:26.011Z,15.00
2023-11-17T12:21:28.311Z,14.10
2023-11-17T12:22:34.623Z,9.30
2023-11-17T12:23:56.894Z,13.60
2023-11-17T12:24:59.127Z,9.20
2023-11-17T12:26:03.825Z,12.60
2023-11-17T12:27:07.297Z,8.00
2023-11-17T12:28:11.531Z,11.10
2023-11-17T12:29:24.350Z,17.40
2023-11-17T12:30:32.829Z,21.40
2023-11-17T12:31:35.623Z,27.90
2023-11-17T12:32:38.961Z,21.00
2023-11-17T12:33:44.488Z,20.20
2023-11-17T12:34:46.892Z,19.10
2023-11-17T12:35:49.339Z,14.10
2023-11-17T12:38:10.638Z,23.10
2023-11-17T12:39:14.337Z,28.40
2023-11-17T12:40:18.352Z,33.90
2023-11-17T12:41:28.028Z,30.80
2023-11-17T12:42:29.565Z,25.20
2023-11-17T12:43:31.772Z,13.20
2023-11-17T12:44:34.698Z,11.80
2023-11-17T12:45:37.140Z,13.09
2023-11-17T12:46:39.871Z,8.20
2023-11-17T12:47:42.906Z,6.90
2023-11-17T12:48:46.475Z,7.50
2023-11-17T12:49:55.626Z,8.40
2023-11-17T12:50:58.564Z,6.20
2023-11-17T12:53:15.316Z,7.20
2023-11-17T12:54:18.285Z,10.30
2023-11-17T12:55:20.675Z,6.45
2023-11-17T12:56:24.433Z,6.30
2023-11-17T12:57:26.717Z,7.70
2023-11-17T12:58:29.328Z,8.40
2023-11-17T12:59:35.663Z,8.10
2023-11-17T13:00:38.916Z,8.00
2023-11-17T13:01:41.791Z,9.30
2023-11-17T13:02:44.799Z,8.30
2023-11-17T13:03:49.140Z,10.20
2023-11-17T13:04:51.602Z,11.50
2023-11-17T13:05:54.164Z,11.80
2023-11-17T13:06:56.630Z,13.10
2023-11-17T13:07:58.912Z,11.30
2023-11-17T13:09:01.678Z,9.80
2023-11-17T13:10:06.782Z,10.50
2023-11-17T13:11:11.655Z,10.30
2023-11-17T13:12:14.109Z,10.00
2023-11-17T13:13:17.510Z,11.00
2023-11-17T13:14:23.962Z,11.10
2023-11-17T13:15:26.557Z,10.10
2023-11-17T13:16:29.388Z,13.40
2023-11-17T13:17:32.159Z,11.45
2023-11-17T13:18:35.305Z,12.50
2023-11-17T13:19:37.789Z,11.30
2023-11-17T13:20:40.126Z,12.30
2023-11-17T13:21:42.935Z,13.00
2023-11-17T13:22:45.288Z,16.60
2023-11-17T13:23:49.338Z,15.30
2023-11-17T13:25:03.196Z,13.20
2023-11-17T13:26:21.673Z,14.50
2023-11-17T13:27:24.597Z,11.70
2023-11-17T13:28:27.959Z,13.60
2023-11-17T13:29:30.880Z,15.80
2023-11-17T13:30:33.161Z,15.30
2023-11-17T13:31:35.494Z,12.70
2023-11-17T13:32:52.163Z,12.50
2023-11-17T13:33:59.666Z,14.20
2023-11-17T13:35:02.190Z,12.30
2023-11-17T13:36:05.613Z,11.80
2023-11-17T13:37:08.002Z,13.00
2023-11-17T13:38:10.053Z,11.30
2023-11-17T13:39:13.231Z,15.10
2023-11-17T13:41:37.740Z,17.30
2023-11-17T13:42:40.497Z,13.00
2023-11-17T13:43:43.303Z,13.45
2023-11-17T13:44:47.695Z,12.27
2023-11-17T13:45:51.209Z,12.60
2023-11-17T13:46:55.484Z,12.90
2023-11-17T13:49:10.563Z,14.10
2023-11-17T13:50:13.746Z,13.50
2023-11-17T13:51:16.459Z,10.40
2023-11-17T13:52:18.837Z,11.45
2023-11-17T13:53:22.746Z,11.10
2023-11-17T13:54:26.226Z,9.40
2023-11-17T13:55:28.826Z,9.30
2023-11-17T13:56:31.400Z,12.50
2023-11-17T13:57:34.046Z,9.00
2023-11-17T13:58:36.295Z,9.60
2023-11-17T13:59:39.071Z,10.50
2023-11-17T14:00:42.160Z,7.82
2023-11-17T14:01:47.421Z,7.20
2023-11-17T14:02:49.960Z,7.70
2023-11-17T14:03:53.489Z,8.40
2023-11-17T14:04:55.801Z,8.50
2023-11-17T14:05:57.852Z,8.00
2023-11-17T14:07:00.514Z,9.70
2023-11-17T14:08:03.795Z,8.30
2023-11-17T14:09:07.202Z,11.10
2023-11-17T14:10:09.806Z,8.80
2023-11-17T14:11:13.190Z,13.80
2023-11-17T14:12:17.273Z,9.90
2023-11-17T14:13:20.125Z,11.70
2023-11-17T14:14:22.829Z,9.90
2023-11-17T14:15:25.157Z,10.70
2023-11-17T14:16:27.237Z,11.00
2023-11-17T14:17:29.535Z,9.40
2023-11-17T14:18:32.432Z,10.90
2023-11-17T14:19:34.620Z,10.70
2023-11-17T14:20:36.794Z,10.80
2023-11-17T14:21:40.296Z,12.60
2023-11-17T14:22:42.591Z,9.00
2023-11-17T14:23:44.711Z,8.50
2023-11-17T14:24:46.919Z,10.70
2023-11-17T14:25:49.056Z,11.30